sensor_id;sensor_type;location;lat;lon;timestamp;temperature;humidity
73683;DHT22;72538;48.146;11.740;2023-12-20T00:01:35;5.30;99.90
73683;DHT22;72538;48.146;11.740;2023-12-20T00:04:02;5.30;99.90
73683;DHT22;72538;48.146;11.740;2023-12-20T00:06:29;5.30;99.90
73683;DHT22;72538;48.146;11.740;2023-12-20T00:08:55;5.20;99.90
73683;DHT22;72538;48.146;11.740;2023-12-20T00:11:21;5.20;99.90
73683;DHT22;72538;48.146;11.740;2023-12-20T00:13:46;5.20;99.90
73683;DHT22;72538;48.146;11.740;2023-12-20T00:16:12;5.20;99.90
73683;DHT22;72538;48.146;11.740;2023-12-20T00:18:38;5.20;99.90
73683;DHT22;72538;48.146;11.740;2023-12-20T00:21:04;5.20;99.90
73683;DHT22;72538;48.146;11.740;2023-12-20T00:23:30;5.20;99.90
73683;DHT22;72538;48.146;11.740;2023-12-20T00:25:55;5.20;99.90
73683;DHT22;72538;48.146;11.740;2023-12-20T00:28:21;5.20;99.90
73683;DHT22;72538;48.146;11.740;2023-12-20T00:30:47;5.30;99.90
73683;DHT22;72538;48.146;11.740;2023-12-20T00:33:13;5.30;99.90
73683;DHT22;72538;48.146;11.740;2023-12-20T00:35:40;5.30;99.90
73683;DHT22;72538;48.146;11.740;2023-12-20T00:38:06;5.30;99.90
73683;DHT22;72538;48.146;11.740;2023-12-20T00:40:32;5.30;99.90
73683;DHT22;72538;48.146;11.740;2023-12-20T00:42:59;5.30;99.90
73683;DHT22;72538;48.146;11.740;2023-12-20T00:45:24;5.40;99.90
73683;DHT22;72538;48.146;11.740;2023-12-20T00:47:50;5.40;99.90
73683;DHT22;72538;48.146;11.740;2023-12-20T00:50:16;5.40;99.90
73683;DHT22;72538;48.146;11.740;2023-12-20T00:52:41;5.40;99.90
73683;DHT22;72538;48.146;11.740;2023-12-20T00:55:07;5.40;99.90
73683;DHT22;72538;48.146;11.740;2023-12-20T00:57:34;5.40;99.90
73683;DHT22;72538;48.146;11.740;2023-12-20T01:00:00;5.40;99.90
73683;DHT22;72538;48.146;11.740;2023-12-20T01:02:26;5.40;99.90
73683;DHT22;72538;48.146;11.740;2023-12-20T01:04:52;5.40;99.90
73683;DHT22;72538;48.146;11.740;2023-12-20T01:07:18;5.50;99.90
73683;DHT22;72538;48.146;11.740;2023-12-20T01:09:44;5.50;99.90
73683;DHT22;72538;48.146;11.740;2023-12-20T01:12:10;5.50;99.90
73683;DHT22;72538;48.146;11.740;2023-12-20T01:14:35;5.60;99.90
73683;DHT22;72538;48.146;11.740;2023-12-20T01:17:02;5.60;99.90
73683;DHT22;72538;48.146;11.740;2023-12-20T01:19:27;5.70;99.90
73683;DHT22;72538;48.146;11.740;2023-12-20T01:21:55;5.70;99.90
73683;DHT22;72538;48.146;11.740;2023-12-20T01:24:21;5.80;99.90
73683;DHT22;72538;48.146;11.740;2023-12-20T01:26:47;5.70;99.90
73683;DHT22;72538;48.146;11.740;2023-12-20T01:29:13;5.70;99.90
73683;DHT22;72538;48.146;11.740;2023-12-20T01:31:40;5.70;99.90
73683;DHT22;72538;48.146;11.740;2023-12-20T01:34:07;5.70;99.90
73683;DHT22;72538;48.146;11.740;2023-12-20T01:36:33;5.70;99.90
73683;DHT22;72538;48.146;11.740;2023-12-20T01:38:59;5.70;99.90
73683;DHT22;72538;48.146;11.740;2023-12-20T01:41:24;5.70;99.90
73683;DHT22;72538;48.146;11.740;2023-12-20T01:43:50;5.70;99.90
73683;DHT22;72538;48.146;11.740;2023-12-20T01:46:16;5.60;99.90
73683;DHT22;72538;48.146;11.740;2023-12-20T01:48:42;5.60;99.90
73683;DHT22;72538;48.146;11.740;2023-12-20T01:51:09;5.60;99.90
73683;DHT22;72538;48.146;11.740;2023-12-20T01:53:36;5.50;99.90
73683;DHT22;72538;48.146;11.740;2023-12-20T01:56:04;5.50;99.90
73683;DHT22;72538;48.146;11.740;2023-12-20T01:58:30;5.50;99.90
73683;DHT22;72538;48.146;11.740;2023-12-20T02:00:57;5.50;99.90
73683;DHT22;72538;48.146;11.740;2023-12-20T02:03:23;5.50;99.90
73683;DHT22;72538;48.146;11.740;2023-12-20T02:05:50;5.40;99.90
73683;DHT22;72538;48.146;11.740;2023-12-20T02:08:15;5.40;99.90
73683;DHT22;72538;48.146;11.740;2023-12-20T02:10:41;5.40;99.90
73683;DHT22;72538;48.146;11.740;2023-12-20T02:13:07;5.40;99.90
73683;DHT22;72538;48.146;11.740;2023-12-20T02:15:33;5.40;99.90
73683;DHT22;72538;48.146;11.740;2023-12-20T02:17:59;5.40;99.90
73683;DHT22;72538;48.146;11.740;2023-12-20T02:20:24;5.40;99.90
73683;DHT22;72538;48.146;11.740;2023-12-20T02:22:50;5.40;99.90
73683;DHT22;72538;48.146;11.740;2023-12-20T02:25:16;5.40;99.90
73683;DHT22;72538;48.146;11.740;2023-12-20T02:27:41;5.40;99.90
73683;DHT22;72538;48.146;11.740;2023-12-20T02:30:08;5.50;99.90
73683;DHT22;72538;48.146;11.740;2023-12-20T02:32:34;5.60;99.90
73683;DHT22;72538;48.146;11.740;2023-12-20T02:35:00;5.70;99.90
73683;DHT22;72538;48.146;11.740;2023-12-20T02:37:25;5.80;99.90
73683;DHT22;72538;48.146;11.740;2023-12-20T02:39:51;5.90;99.90
73683;DHT22;72538;48.146;11.740;2023-12-20T02:42:17;6.00;99.90
73683;DHT22;72538;48.146;11.740;2023-12-20T02:44:43;6.10;99.90
73683;DHT22;72538;48.146;11.740;2023-12-20T02:47:08;6.30;99.90
73683;DHT22;72538;48.146;11.740;2023-12-20T02:49:34;6.40;99.90
73683;DHT22;72538;48.146;11.740;2023-12-20T02:52:00;6.50;99.90
73683;DHT22;72538;48.146;11.740;2023-12-20T02:54:25;6.50;99.90
73683;DHT22;72538;48.146;11.740;2023-12-20T02:56:51;6.60;99.90
73683;DHT22;72538;48.146;11.740;2023-12-20T02:59:17;6.60;99.90
73683;DHT22;72538;48.146;11.740;2023-12-20T03:01:44;6.50;99.90
73683;DHT22;72538;48.146;11.740;2023-12-20T03:04:11;6.50;99.90
73683;DHT22;72538;48.146;11.740;2023-12-20T03:06:38;6.50;99.90
73683;DHT22;72538;48.146;11.740;2023-12-20T03:09:04;6.50;99.90
73683;DHT22;72538;48.146;11.740;2023-12-20T03:11:32;6.50;99.90
73683;DHT22;72538;48.146;11.740;2023-12-20T03:13:57;6.50;99.90
73683;DHT22;72538;48.146;11.740;2023-12-20T03:16:23;6.60;99.90
73683;DHT22;72538;48.146;11.740;2023-12-20T03:18:49;6.60;99.90
73683;DHT22;72538;48.146;11.740;2023-12-20T03:21:16;6.60;99.90
73683;DHT22;72538;48.146;11.740;2023-12-20T03:23:42;6.60;99.90
73683;DHT22;72538;48.146;11.740;2023-12-20T03:26:09;6.70;99.90
73683;DHT22;72538;48.146;11.740;2023-12-20T03:28:36;6.80;99.90
73683;DHT22;72538;48.146;11.740;2023-12-20T03:31:01;6.70;99.90
73683;DHT22;72538;48.146;11.740;2023-12-20T03:33:28;6.70;99.90
73683;DHT22;72538;48.146;11.740;2023-12-20T03:35:54;6.70;99.90
73683;DHT22;72538;48.146;11.740;2023-12-20T03:38:21;6.70;99.90
73683;DHT22;72538;48.146;11.740;2023-12-20T03:40:47;6.70;99.90
73683;DHT22;72538;48.146;11.740;2023-12-20T03:43:12;6.60;99.90
73683;DHT22;72538;48.146;11.740;2023-12-20T03:45:38;6.70;99.90
73683;DHT22;72538;48.146;11.740;2023-12-20T03:48:05;6.70;99.90
73683;DHT22;72538;48.146;11.740;2023-12-20T03:50:31;6.70;99.90
73683;DHT22;72538;48.146;11.740;2023-12-20T03:52:57;6.80;99.90
73683;DHT22;72538;48.146;11.740;2023-12-20T03:55:22;6.70;99.90
73683;DHT22;72538;48.146;11.740;2023-12-20T03:57:48;6.70;99.90
73683;DHT22;72538;48.146;11.740;2023-12-20T04:00:15;6.70;99.90
73683;DHT22;72538;48.146;11.740;2023-12-20T04:02:41;6.70;99.90
73683;DHT22;72538;48.146;11.740;2023-12-20T04:05:08;6.70;99.90
73683;DHT22;72538;48.146;11.740;2023-12-20T04:07:35;6.70;99.90
73683;DHT22;72538;48.146;11.740;2023-12-20T04:10:02;6.70;99.90
73683;DHT22;72538;48.146;11.740;2023-12-20T04:12:29;6.70;99.90
73683;DHT22;72538;48.146;11.740;2023-12-20T04:14:55;6.70;99.90
73683;DHT22;72538;48.146;11.740;2023-12-20T04:17:21;6.60;99.90
73683;DHT22;72538;48.146;11.740;2023-12-20T04:19:49;6.60;99.90
73683;DHT22;72538;48.146;11.740;2023-12-20T04:22:17;6.60;99.90
73683;DHT22;72538;48.146;11.740;2023-12-20T04:24:42;6.50;99.90
73683;DHT22;72538;48.146;11.740;2023-12-20T04:27:08;6.50;99.90
73683;DHT22;72538;48.146;11.740;2023-12-20T04:29:34;6.50;99.90
73683;DHT22;72538;48.146;11.740;2023-12-20T04:32:00;6.40;99.90
73683;DHT22;72538;48.146;11.740;2023-12-20T04:34:26;6.40;99.90
73683;DHT22;72538;48.146;11.740;2023-12-20T04:36:52;6.30;99.90
73683;DHT22;72538;48.146;11.740;2023-12-20T04:39:18;6.30;99.90
73683;DHT22;72538;48.146;11.740;2023-12-20T04:41:44;6.30;99.90
73683;DHT22;72538;48.146;11.740;2023-12-20T04:44:09;6.30;99.90
73683;DHT22;72538;48.146;11.740;2023-12-20T04:46:35;6.20;99.90
73683;DHT22;72538;48.146;11.740;2023-12-20T04:49:01;6.20;99.90
73683;DHT22;72538;48.146;11.740;2023-12-20T04:51:27;6.10;99.90
73683;DHT22;72538;48.146;11.740;2023-12-20T04:53:52;6.10;99.90
73683;DHT22;72538;48.146;11.740;2023-12-20T04:56:18;6.10;99.90
73683;DHT22;72538;48.146;11.740;2023-12-20T04:58:44;6.10;99.90
73683;DHT22;72538;48.146;11.740;2023-12-20T05:01:11;6.20;99.90
73683;DHT22;72538;48.146;11.740;2023-12-20T05:03:37;6.20;99.90
73683;DHT22;72538;48.146;11.740;2023-12-20T05:06:03;6.10;99.90
73683;DHT22;72538;48.146;11.740;2023-12-20T05:08:29;6.10;99.90
73683;DHT22;72538;48.146;11.740;2023-12-20T05:10:55;6.10;99.90
73683;DHT22;72538;48.146;11.740;2023-12-20T05:13:21;6.10;99.90
73683;DHT22;72538;48.146;11.740;2023-12-20T05:15:47;6.10;99.90
73683;DHT22;72538;48.146;11.740;2023-12-20T05:18:13;6.10;99.90
73683;DHT22;72538;48.146;11.740;2023-12-20T05:20:39;6.10;99.90
73683;DHT22;72538;48.146;11.740;2023-12-20T05:23:05;6.00;99.90
73683;DHT22;72538;48.146;11.740;2023-12-20T05:25:31;5.90;99.90
73683;DHT22;72538;48.146;11.740;2023-12-20T05:27:57;5.80;99.90
73683;DHT22;72538;48.146;11.740;2023-12-20T05:30:23;5.70;99.90
73683;DHT22;72538;48.146;11.740;2023-12-20T05:32:49;5.70;99.90
73683;DHT22;72538;48.146;11.740;2023-12-20T05:35:15;5.60;99.90
73683;DHT22;72538;48.146;11.740;2023-12-20T05:37:41;5.60;99.90
73683;DHT22;72538;48.146;11.740;2023-12-20T05:40:08;5.60;99.90
73683;DHT22;72538;48.146;11.740;2023-12-20T05:42:37;5.60;99.90
73683;DHT22;72538;48.146;11.740;2023-12-20T05:45:04;5.50;99.90
73683;DHT22;72538;48.146;11.740;2023-12-20T05:47:31;5.50;99.90
73683;DHT22;72538;48.146;11.740;2023-12-20T05:49:57;5.50;99.90
73683;DHT22;72538;48.146;11.740;2023-12-20T05:52:23;5.50;99.90
73683;DHT22;72538;48.146;11.740;2023-12-20T05:54:49;5.40;99.90
73683;DHT22;72538;48.146;11.740;2023-12-20T05:57:14;5.30;99.90
73683;DHT22;72538;48.146;11.740;2023-12-20T05:59:40;5.30;99.90
73683;DHT22;72538;48.146;11.740;2023-12-20T06:02:06;5.40;99.90
73683;DHT22;72538;48.146;11.740;2023-12-20T06:04:32;5.30;99.90
73683;DHT22;72538;48.146;11.740;2023-12-20T06:06:58;5.30;99.90
73683;DHT22;72538;48.146;11.740;2023-12-20T06:09:26;5.30;99.90
73683;DHT22;72538;48.146;11.740;2023-12-20T06:11:52;5.30;99.90
73683;DHT22;72538;48.146;11.740;2023-12-20T06:14:18;5.20;99.90
73683;DHT22;72538;48.146;11.740;2023-12-20T06:16:45;5.20;99.90
73683;DHT22;72538;48.146;11.740;2023-12-20T06:19:11;5.20;99.90
73683;DHT22;72538;48.146;11.740;2023-12-20T06:21:37;5.10;99.90
73683;DHT22;72538;48.146;11.740;2023-12-20T06:24:04;5.10;99.90
73683;DHT22;72538;48.146;11.740;2023-12-20T06:26:37;5.10;99.90
73683;DHT22;72538;48.146;11.740;2023-12-20T06:29:02;5.10;99.90
73683;DHT22;72538;48.146;11.740;2023-12-20T06:31:28;5.00;99.90
73683;DHT22;72538;48.146;11.740;2023-12-20T06:33:54;5.10;99.90
73683;DHT22;72538;48.146;11.740;2023-12-20T06:36:22;5.00;99.90
73683;DHT22;72538;48.146;11.740;2023-12-20T06:38:48;5.00;99.90
73683;DHT22;72538;48.146;11.740;2023-12-20T06:41:13;4.90;99.90
73683;DHT22;72538;48.146;11.740;2023-12-20T06:43:40;4.80;99.90
73683;DHT22;72538;48.146;11.740;2023-12-20T06:46:06;4.80;99.90
73683;DHT22;72538;48.146;11.740;2023-12-20T06:48:32;4.80;99.90
73683;DHT22;72538;48.146;11.740;2023-12-20T06:51:00;4.80;99.90
73683;DHT22;72538;48.146;11.740;2023-12-20T06:53:25;4.80;99.90
73683;DHT22;72538;48.146;11.740;2023-12-20T06:55:51;4.70;99.90
73683;DHT22;72538;48.146;11.740;2023-12-20T06:58:17;4.70;99.90
73683;DHT22;72538;48.146;11.740;2023-12-20T07:00:42;4.70;99.90
73683;DHT22;72538;48.146;11.740;2023-12-20T07:03:09;4.60;99.90
73683;DHT22;72538;48.146;11.740;2023-12-20T07:05:35;4.60;99.90
73683;DHT22;72538;48.146;11.740;2023-12-20T07:08:01;4.60;99.90
73683;DHT22;72538;48.146;11.740;2023-12-20T07:10:26;4.50;99.90
73683;DHT22;72538;48.146;11.740;2023-12-20T07:12:52;4.50;99.90
73683;DHT22;72538;48.146;11.740;2023-12-20T07:15:20;4.50;99.90
73683;DHT22;72538;48.146;11.740;2023-12-20T07:17:46;4.40;99.90
73683;DHT22;72538;48.146;11.740;2023-12-20T07:20:11;4.40;99.90
73683;DHT22;72538;48.146;11.740;2023-12-20T07:22:37;4.40;99.90
73683;DHT22;72538;48.146;11.740;2023-12-20T07:25:05;4.40;99.90
73683;DHT22;72538;48.146;11.740;2023-12-20T07:27:31;4.40;99.90
73683;DHT22;72538;48.146;11.740;2023-12-20T07:29:57;4.40;99.90
73683;DHT22;72538;48.146;11.740;2023-12-20T07:32:23;4.40;99.90
73683;DHT22;72538;48.146;11.740;2023-12-20T07:34:48;4.50;99.90
73683;DHT22;72538;48.146;11.740;2023-12-20T07:37:14;4.50;99.90
73683;DHT22;72538;48.146;11.740;2023-12-20T07:39:40;4.50;99.90
73683;DHT22;72538;48.146;11.740;2023-12-20T07:42:09;4.50;99.90
73683;DHT22;72538;48.146;11.740;2023-12-20T07:44:35;4.40;99.90
73683;DHT22;72538;48.146;11.740;2023-12-20T07:47:04;4.50;99.90
73683;DHT22;72538;48.146;11.740;2023-12-20T07:49:30;4.40;99.90
73683;DHT22;72538;48.146;11.740;2023-12-20T07:51:57;4.50;99.90
73683;DHT22;72538;48.146;11.740;2023-12-20T07:54:23;4.40;99.90
73683;DHT22;72538;48.146;11.740;2023-12-20T07:56:50;4.40;99.90
73683;DHT22;72538;48.146;11.740;2023-12-20T07:59:16;4.40;99.90
73683;DHT22;72538;48.146;11.740;2023-12-20T08:01:42;4.50;99.90
73683;DHT22;72538;48.146;11.740;2023-12-20T08:04:08;4.50;99.90
73683;DHT22;72538;48.146;11.740;2023-12-20T08:06:34;4.50;99.90
73683;DHT22;72538;48.146;11.740;2023-12-20T08:09:00;4.50;99.90
73683;DHT22;72538;48.146;11.740;2023-12-20T08:11:26;4.50;99.90
73683;DHT22;72538;48.146;11.740;2023-12-20T08:13:53;4.50;99.90
73683;DHT22;72538;48.146;11.740;2023-12-20T08:16:18;4.60;99.90
73683;DHT22;72538;48.146;11.740;2023-12-20T08:18:44;4.50;99.90
73683;DHT22;72538;48.146;11.740;2023-12-20T08:21:10;4.50;99.90
73683;DHT22;72538;48.146;11.740;2023-12-20T08:23:37;4.50;99.90
73683;DHT22;72538;48.146;11.740;2023-12-20T08:26:08;4.50;99.90
73683;DHT22;72538;48.146;11.740;2023-12-20T08:28:34;4.50;99.90
73683;DHT22;72538;48.146;11.740;2023-12-20T08:31:01;4.50;99.90
73683;DHT22;72538;48.146;11.740;2023-12-20T08:33:27;4.50;99.90
73683;DHT22;72538;48.146;11.740;2023-12-20T08:35:52;4.50;99.90
73683;DHT22;72538;48.146;11.740;2023-12-20T08:38:18;4.40;99.90
73683;DHT22;72538;48.146;11.740;2023-12-20T08:40:44;4.40;99.90
73683;DHT22;72538;48.146;11.740;2023-12-20T08:43:10;4.40;99.90
73683;DHT22;72538;48.146;11.740;2023-12-20T08:45:38;4.40;99.90
73683;DHT22;72538;48.146;11.740;2023-12-20T08:48:05;4.40;99.90
73683;DHT22;72538;48.146;11.740;2023-12-20T08:50:31;4.40;99.90
73683;DHT22;72538;48.146;11.740;2023-12-20T08:52:57;4.30;99.90
73683;DHT22;72538;48.146;11.740;2023-12-20T08:55:22;4.40;99.90
73683;DHT22;72538;48.146;11.740;2023-12-20T08:57:48;4.40;99.90
73683;DHT22;72538;48.146;11.740;2023-12-20T09:00:15;4.40;99.90
73683;DHT22;72538;48.146;11.740;2023-12-20T09:02:41;4.50;99.90
73683;DHT22;72538;48.146;11.740;2023-12-20T09:05:08;4.60;99.90
73683;DHT22;72538;48.146;11.740;2023-12-20T09:07:34;4.60;99.90
73683;DHT22;72538;48.146;11.740;2023-12-20T09:10:00;4.60;99.90
73683;DHT22;72538;48.146;11.740;2023-12-20T09:12:26;4.60;99.90
73683;DHT22;72538;48.146;11.740;2023-12-20T09:14:53;4.70;99.90
73683;DHT22;72538;48.146;11.740;2023-12-20T09:17:19;4.80;99.90
73683;DHT22;72538;48.146;11.740;2023-12-20T09:19:46;4.80;99.90
73683;DHT22;72538;48.146;11.740;2023-12-20T09:22:12;4.90;99.90
73683;DHT22;72538;48.146;11.740;2023-12-20T09:24:38;4.90;99.90
73683;DHT22;72538;48.146;11.740;2023-12-20T09:27:05;4.90;99.90
73683;DHT22;72538;48.146;11.740;2023-12-20T09:29:31;4.90;99.90
73683;DHT22;72538;48.146;11.740;2023-12-20T09:31:57;4.80;99.90
73683;DHT22;72538;48.146;11.740;2023-12-20T09:34:23;4.90;99.90
73683;DHT22;72538;48.146;11.740;2023-12-20T09:36:49;4.80;99.90
73683;DHT22;72538;48.146;11.740;2023-12-20T09:39:17;4.80;99.90
73683;DHT22;72538;48.146;11.740;2023-12-20T09:42:02;4.90;99.90
73683;DHT22;72538;48.146;11.740;2023-12-20T09:44:28;4.90;99.90
73683;DHT22;72538;48.146;11.740;2023-12-20T09:46:55;4.80;99.90
73683;DHT22;72538;48.146;11.740;2023-12-20T09:49:22;4.80;99.90
73683;DHT22;72538;48.146;11.740;2023-12-20T09:51:50;4.80;99.90
73683;DHT22;72538;48.146;11.740;2023-12-20T09:54:18;4.80;99.90
73683;DHT22;72538;48.146;11.740;2023-12-20T09:56:44;4.90;99.90
73683;DHT22;72538;48.146;11.740;2023-12-20T09:59:10;4.90;99.90
73683;DHT22;72538;48.146;11.740;2023-12-20T10:01:38;4.90;99.90
73683;DHT22;72538;48.146;11.740;2023-12-20T10:04:06;4.90;99.90
73683;DHT22;72538;48.146;11.740;2023-12-20T10:06:41;5.00;99.90
73683;DHT22;72538;48.146;11.740;2023-12-20T10:09:11;5.10;99.90
73683;DHT22;72538;48.146;11.740;2023-12-20T10:11:38;5.10;99.90
73683;DHT22;72538;48.146;11.740;2023-12-20T10:14:05;5.10;99.90
73683;DHT22;72538;48.146;11.740;2023-12-20T10:16:32;5.20;99.90
73683;DHT22;72538;48.146;11.740;2023-12-20T10:18:59;5.30;99.90
73683;DHT22;72538;48.146;11.740;2023-12-20T10:21:25;5.30;99.90
73683;DHT22;72538;48.146;11.740;2023-12-20T10:23:54;5.40;99.90
73683;DHT22;72538;48.146;11.740;2023-12-20T10:26:25;5.40;99.90
73683;DHT22;72538;48.146;11.740;2023-12-20T10:28:53;5.50;99.90
73683;DHT22;72538;48.146;11.740;2023-12-20T10:31:33;5.50;99.90
73683;DHT22;72538;48.146;11.740;2023-12-20T10:34:02;5.60;99.90
73683;DHT22;72538;48.146;11.740;2023-12-20T10:36:30;5.60;99.90
73683;DHT22;72538;48.146;11.740;2023-12-20T10:38:57;5.70;99.90
73683;DHT22;72538;48.146;11.740;2023-12-20T10:44:01;5.70;99.90
73683;DHT22;72538;48.146;11.740;2023-12-20T10:46:29;5.70;99.90
73683;DHT22;72538;48.146;11.740;2023-12-20T10:48:56;5.80;99.90
73683;DHT22;72538;48.146;11.740;2023-12-20T10:51:23;5.90;99.90
73683;DHT22;72538;48.146;11.740;2023-12-20T10:53:53;5.70;99.90
73683;DHT22;72538;48.146;11.740;2023-12-20T10:56:19;5.70;99.90
73683;DHT22;72538;48.146;11.740;2023-12-20T10:58:52;5.80;99.90
73683;DHT22;72538;48.146;11.740;2023-12-20T11:01:19;5.90;99.90
73683;DHT22;72538;48.146;11.740;2023-12-20T11:03:51;5.90;99.90
73683;DHT22;72538;48.146;11.740;2023-12-20T11:08:54;5.90;99.90
73683;DHT22;72538;48.146;11.740;2023-12-20T11:11:46;5.90;99.90
73683;DHT22;72538;48.146;11.740;2023-12-20T11:14:19;5.80;99.90
73683;DHT22;72538;48.146;11.740;2023-12-20T11:16:45;5.90;99.90
73683;DHT22;72538;48.146;11.740;2023-12-20T11:19:11;5.90;99.90
73683;DHT22;72538;48.146;11.740;2023-12-20T11:21:40;5.80;99.90
73683;DHT22;72538;48.146;11.740;2023-12-20T11:24:06;5.70;99.90
73683;DHT22;72538;48.146;11.740;2023-12-20T11:26:31;5.70;99.90
73683;DHT22;72538;48.146;11.740;2023-12-20T11:29:35;5.60;99.90
73683;DHT22;72538;48.146;11.740;2023-12-20T11:34:50;5.60;99.90
73683;DHT22;72538;48.146;11.740;2023-12-20T11:37:16;5.60;99.90
73683;DHT22;72538;48.146;11.740;2023-12-20T11:39:44;5.60;99.90
73683;DHT22;72538;48.146;11.740;2023-12-20T11:42:10;5.70;99.90
73683;DHT22;72538;48.146;11.740;2023-12-20T11:44:37;5.70;99.90
73683;DHT22;72538;48.146;11.740;2023-12-20T11:47:04;5.90;99.90
73683;DHT22;72538;48.146;11.740;2023-12-20T11:49:29;6.00;99.90
73683;DHT22;72538;48.146;11.740;2023-12-20T11:51:56;6.00;99.90
73683;DHT22;72538;48.146;11.740;2023-12-20T11:54:22;6.00;99.90
73683;DHT22;72538;48.146;11.740;2023-12-20T11:56:48;6.00;99.90
73683;DHT22;72538;48.146;11.740;2023-12-20T11:59:14;6.00;99.90
73683;DHT22;72538;48.146;11.740;2023-12-20T12:01:47;6.00;99.90
73683;DHT22;72538;48.146;11.740;2023-12-20T12:04:10;6.10;99.90
73683;DHT22;72538;48.146;11.740;2023-12-20T12:06:35;6.10;99.90
73683;DHT22;72538;48.146;11.740;2023-12-20T12:09:01;6.20;99.90
73683;DHT22;72538;48.146;11.740;2023-12-20T12:11:29;6.10;99.90
73683;DHT22;72538;48.146;11.740;2023-12-20T12:13:55;6.10;99.90
73683;DHT22;72538;48.146;11.740;2023-12-20T12:16:21;6.00;99.90
73683;DHT22;72538;48.146;11.740;2023-12-20T12:18:56;5.90;99.90
73683;DHT22;72538;48.146;11.740;2023-12-20T12:21:22;5.90;99.90
73683;DHT22;72538;48.146;11.740;2023-12-20T12:23:48;6.00;99.90
73683;DHT22;72538;48.146;11.740;2023-12-20T12:26:13;6.00;99.90
73683;DHT22;72538;48.146;11.740;2023-12-20T12:28:40;6.20;99.90
73683;DHT22;72538;48.146;11.740;2023-12-20T12:31:07;6.20;99.90
73683;DHT22;72538;48.146;11.740;2023-12-20T12:33:34;6.30;99.90
73683;DHT22;72538;48.146;11.740;2023-12-20T12:36:01;6.30;99.90
73683;DHT22;72538;48.146;11.740;2023-12-20T12:38:27;6.30;99.90
73683;DHT22;72538;48.146;11.740;2023-12-20T12:40:54;6.30;99.90
73683;DHT22;72538;48.146;11.740;2023-12-20T12:43:20;6.30;99.90
73683;DHT22;72538;48.146;11.740;2023-12-20T12:45:48;6.30;99.90
73683;DHT22;72538;48.146;11.740;2023-12-20T12:48:15;6.30;99.90
73683;DHT22;72538;48.146;11.740;2023-12-20T12:50:40;6.30;99.90
73683;DHT22;72538;48.146;11.740;2023-12-20T12:53:06;6.20;99.90
73683;DHT22;72538;48.146;11.740;2023-12-20T12:55:34;6.20;99.90
73683;DHT22;72538;48.146;11.740;2023-12-20T12:58:00;6.20;99.90
73683;DHT22;72538;48.146;11.740;2023-12-20T13:00:26;6.20;99.90
73683;DHT22;72538;48.146;11.740;2023-12-20T13:02:52;6.20;99.90
73683;DHT22;72538;48.146;11.740;2023-12-20T13:05:17;6.20;99.90
73683;DHT22;72538;48.146;11.740;2023-12-20T13:07:43;6.20;99.90
73683;DHT22;72538;48.146;11.740;2023-12-20T13:10:11;6.10;99.90
73683;DHT22;72538;48.146;11.740;2023-12-20T13:12:37;6.10;99.90
73683;DHT22;72538;48.146;11.740;2023-12-20T13:15:03;6.00;99.90
73683;DHT22;72538;48.146;11.740;2023-12-20T13:17:29;6.00;99.90
73683;DHT22;72538;48.146;11.740;2023-12-20T13:19:55;5.90;99.90
73683;DHT22;72538;48.146;11.740;2023-12-20T13:22:21;5.70;99.90
73683;DHT22;72538;48.146;11.740;2023-12-20T13:24:47;5.40;99.90
73683;DHT22;72538;48.146;11.740;2023-12-20T13:27:12;5.40;99.90
73683;DHT22;72538;48.146;11.740;2023-12-20T13:29:38;5.20;99.90
73683;DHT22;72538;48.146;11.740;2023-12-20T13:32:05;5.00;99.90
73683;DHT22;72538;48.146;11.740;2023-12-20T13:34:31;4.90;99.90
73683;DHT22;72538;48.146;11.740;2023-12-20T13:36:57;4.90;99.90
73683;DHT22;72538;48.146;11.740;2023-12-20T13:39:23;4.80;99.90
73683;DHT22;72538;48.146;11.740;2023-12-20T13:41:49;4.70;99.90
73683;DHT22;72538;48.146;11.740;2023-12-20T13:44:15;4.70;99.90
73683;DHT22;72538;48.146;11.740;2023-12-20T13:46:41;4.70;99.90
73683;DHT22;72538;48.146;11.740;2023-12-20T13:49:07;4.70;99.90
73683;DHT22;72538;48.146;11.740;2023-12-20T13:51:33;4.70;99.90
73683;DHT22;72538;48.146;11.740;2023-12-20T13:53:59;4.70;99.90
73683;DHT22;72538;48.146;11.740;2023-12-20T13:56:26;4.70;99.90
73683;DHT22;72538;48.146;11.740;2023-12-20T13:58:52;4.70;99.90
73683;DHT22;72538;48.146;11.740;2023-12-20T14:01:38;4.80;99.90
73683;DHT22;72538;48.146;11.740;2023-12-20T14:04:03;4.80;99.90
73683;DHT22;72538;48.146;11.740;2023-12-20T14:06:29;4.80;99.90
73683;DHT22;72538;48.146;11.740;2023-12-20T14:08:55;4.80;99.90
73683;DHT22;72538;48.146;11.740;2023-12-20T14:11:21;4.80;99.90
73683;DHT22;72538;48.146;11.740;2023-12-20T14:13:46;4.80;99.90
73683;DHT22;72538;48.146;11.740;2023-12-20T14:16:12;4.80;99.90
73683;DHT22;72538;48.146;11.740;2023-12-20T14:18:38;4.80;99.90
73683;DHT22;72538;48.146;11.740;2023-12-20T14:21:05;4.90;99.90
73683;DHT22;72538;48.146;11.740;2023-12-20T14:23:32;4.80;99.90
73683;DHT22;72538;48.146;11.740;2023-12-20T14:25:59;4.80;99.90
73683;DHT22;72538;48.146;11.740;2023-12-20T14:28:25;4.80;99.90
73683;DHT22;72538;48.146;11.740;2023-12-20T14:30:51;4.70;99.90
73683;DHT22;72538;48.146;11.740;2023-12-20T14:33:17;4.70;99.90
73683;DHT22;72538;48.146;11.740;2023-12-20T14:35:44;4.70;99.90
73683;DHT22;72538;48.146;11.740;2023-12-20T14:38:10;4.60;99.90
73683;DHT22;72538;48.146;11.740;2023-12-20T14:40:36;4.50;99.90
73683;DHT22;72538;48.146;11.740;2023-12-20T14:43:02;4.50;99.90
73683;DHT22;72538;48.146;11.740;2023-12-20T14:45:29;4.40;99.90
73683;DHT22;72538;48.146;11.740;2023-12-20T14:47:55;4.40;99.90
73683;DHT22;72538;48.146;11.740;2023-12-20T14:50:21;4.40;99.90
73683;DHT22;72538;48.146;11.740;2023-12-20T14:52:47;4.40;99.90
73683;DHT22;72538;48.146;11.740;2023-12-20T14:55:13;4.40;99.90
73683;DHT22;72538;48.146;11.740;2023-12-20T14:57:39;4.40;99.90
73683;DHT22;72538;48.146;11.740;2023-12-20T15:00:06;4.40;99.90
73683;DHT22;72538;48.146;11.740;2023-12-20T15:02:32;4.30;99.90
73683;DHT22;72538;48.146;11.740;2023-12-20T15:04:58;4.30;99.90
73683;DHT22;72538;48.146;11.740;2023-12-20T15:07:24;4.20;99.90
73683;DHT22;72538;48.146;11.740;2023-12-20T15:09:50;4.20;99.90
73683;DHT22;72538;48.146;11.740;2023-12-20T15:12:15;4.10;99.90
73683;DHT22;72538;48.146;11.740;2023-12-20T15:14:41;4.10;99.90
73683;DHT22;72538;48.146;11.740;2023-12-20T15:17:07;4.10;99.90
73683;DHT22;72538;48.146;11.740;2023-12-20T15:19:33;4.10;99.90
73683;DHT22;72538;48.146;11.740;2023-12-20T15:21:59;4.00;99.90
73683;DHT22;72538;48.146;11.740;2023-12-20T15:24:25;3.90;99.90
73683;DHT22;72538;48.146;11.740;2023-12-20T15:26:56;3.80;99.90
73683;DHT22;72538;48.146;11.740;2023-12-20T15:29:21;3.90;99.90
73683;DHT22;72538;48.146;11.740;2023-12-20T15:31:47;3.80;99.90
73683;DHT22;72538;48.146;11.740;2023-12-20T15:34:14;3.90;99.90